Sanko Independence — A8QJ9 — position and weather

sailwx.info

Track history (hours):
 
Tides and Currents Weather Stations Pressure Air Temp Water Temp Dewpoint Dewpoint Depression Visibility Wind Speed Wind Dir Waves Ship Positions

Sanko Independence

Last reported at 2014-Nov-16 09:33 UTC. Time now 2014-Nov-22 03:02 UTC.
Position N 36°29' E 026°48'.

Length 174 m; draft 10.5 m.

Type: Ship (hazmat cat C). MMSI: 636013946.

Date/timePositionNaut miles runAvg speedWind from/ knotsBaromVisibWave heightAir tempDewpointWater temp
2014-Nov-16 09:33N 36°29' E 026°48'1616.0
2014-Nov-16 08:33N 36°45' E 026°44'1616.0
2014-Nov-16 07:33N 37°00' E 026°38'1616.1
2014-Nov-16 06:33N 37°10' E 026°22'1615.9
2014-Nov-16 05:33N 37°19' E 026°06'1615.7
2014-Nov-16 04:33N 37°28' E 025°49'1615.8
2014-Nov-16 03:33N 37°42' E 025°42'1616.2
2014-Nov-16 02:33N 37°58' E 025°35'1716.1
2014-Nov-16 01:28N 38°14' E 025°27'  
2014-Nov-13 13:33N 46°27' E 030°55'10 0.7
2014-Nov-12 22:20N 46°37' E 031°01'0 0.1
2014-Nov-12 18:33N 46°37' E 031°01'5 5.1
2014-Nov-12 17:31N 46°32' E 030°59'0 0.1
2014-Nov-12 16:31N 46°32' E 030°59'0 0.0
2014-Nov-12 15:31N 46°32' E 030°59'0 0.0
2014-Nov-12 14:07N 46°32' E 030°59'1 0.3
2014-Nov-12 11:21N 46°32' E 030°57'4214.2
2014-Nov-12 08:25N 45°51' E 031°11'1515.8
2014-Nov-12 07:29N 45°37' E 031°12'25315.6
2014-Nov-11 15:16N 41°36' E 029°24'1216.6
2014-Nov-11 14:33N 41°25' E 029°17'1913.7
2014-Nov-11 13:07N 41°09' E 029°04'811.8
2014-Nov-11 12:28N 41°01' E 029°00'7 7.4
2014-Nov-11 11:32N 40°55' E 028°60'7 6.7
2014-Nov-11 10:33N 40°48' E 028°57'1 0.6
2014-Nov-11 09:33N 40°48' E 028°57'1 0.7
2014-Nov-11 08:33N 40°47' E 028°57'1 0.7
2014-Nov-11 07:32N 40°47' E 028°58'1 0.5
2014-Nov-11 06:33N 40°46' E 028°58'3 3.4
2014-Nov-11 05:32N 40°49' E 028°55'1 0.8
2014-Nov-11 04:32N 40°48' E 028°56'1 0.7
2014-Nov-11 03:33N 40°47' E 028°56'1 0.5
2014-Nov-11 02:33N 40°47' E 028°56'0 0.5
2014-Nov-11 01:33N 40°47' E 028°56'0 0.3
2014-Nov-11 00:33N 40°46' E 028°57'0 0.2
2014-Nov-10 23:33N 40°46' E 028°57'0 0.1
2014-Nov-10 22:33N 40°46' E 028°57'0 0.2
2014-Nov-10 21:33N 40°46' E 028°57'0 0.2
2014-Nov-10 20:32N 40°46' E 028°57'0 0.1
2014-Nov-10 19:33N 40°46' E 028°57'0 0.2
2014-Nov-10 18:33N 40°45' E 028°57'0 0.2
2014-Nov-10 17:33N 40°45' E 028°57'4 4.1
2014-Nov-10 16:31N 40°48' E 029°01'0 0.3
2014-Nov-10 15:32N 40°48' E 029°01'0 0.1
2014-Nov-10 14:33N 40°48' E 029°01'0 0.1
2014-Nov-10 13:33N 40°48' E 029°01'0 0.2
2014-Nov-10 12:33N 40°48' E 029°00'0 0.3
2014-Nov-10 11:33N 40°48' E 029°00'0 0.4
2014-Nov-10 10:32N 40°47' E 028°60'0 0.4
2014-Nov-10 09:33N 40°47' E 028°60'0 0.3
2014-Nov-10 08:33N 40°47' E 028°59'0 0.2
2014-Nov-10 07:33N 40°47' E 028°59'0 0.4
2014-Nov-10 06:31N 40°46' E 028°59'0 0.4
2014-Nov-10 05:33N 40°46' E 028°58'0 0.4
2014-Nov-10 04:33N 40°46' E 028°58'0 0.4
2014-Nov-10 03:33N 40°45' E 028°58'0 0.3
2014-Nov-10 02:33N 40°45' E 028°57'0 0.3
2014-Nov-10 01:33N 40°45' E 028°57'0 0.3
2014-Nov-10 00:33N 40°45' E 028°57'6 6.1
2014-Nov-09 23:33N 40°51' E 028°55'6 5.7
2014-Nov-09 22:33N 40°46' E 028°56'1515.4
2014-Nov-09 21:33N 40°34' E 028°43'1513.3
2014-Nov-09 20:24N 40°26' E 028°60'14 0.4
2014-Nov-08 12:33N 40°31' E 028°43'1313.2
2014-Nov-08 11:33N 40°40' E 028°54'1414.5
2014-Nov-08 10:33N 40°43' E 029°13'1312.8
2014-Nov-08 09:33N 40°45' E 029°30'7 0.3
2014-Nov-07 07:29N 40°44' E 029°39'1111.5
2014-Nov-07 06:32N 40°44' E 029°24'7 7.2
2014-Nov-07 05:33N 40°43' E 029°15'1312.7
2014-Nov-07 04:33N 40°43' E 028°59'1515.2
2014-Nov-07 03:33N 40°43' E 028°39'1514.9
2014-Nov-07 02:31N 40°43' E 028°18'  
Track history (hours):
 
Tides and Currents Weather Stations Pressure Air Temp Water Temp Dewpoint Dewpoint Depression Visibility Wind Speed Wind Dir Waves Ship Positions

Sanko Independence

Last reported at 2014-Nov-16 09:33 UTC. Time now 2014-Nov-22 03:02 UTC.
Position N 36°29' E 026°48'.

Length 174 m; draft 10.5 m.

Type: Ship (hazmat cat C). MMSI: 636013946.

Date/timePositionNaut miles runAvg speedWind from/ knotsBaromVisibWave heightAir tempDewpointWater temp
2014-Nov-16 09:33N 36°29' E 026°48'1616.0
2014-Nov-16 08:33N 36°45' E 026°44'1616.0
2014-Nov-16 07:33N 37°00' E 026°38'1616.1
2014-Nov-16 06:33N 37°10' E 026°22'1615.9
2014-Nov-16 05:33N 37°19' E 026°06'1615.7
2014-Nov-16 04:33N 37°28' E 025°49'1615.8
2014-Nov-16 03:33N 37°42' E 025°42'1616.2
2014-Nov-16 02:33N 37°58' E 025°35'1716.1
2014-Nov-16 01:28N 38°14' E 025°27'  
2014-Nov-13 13:33N 46°27' E 030°55'10 0.7
2014-Nov-12 22:20N 46°37' E 031°01'0 0.1
2014-Nov-12 18:33N 46°37' E 031°01'5 5.1
2014-Nov-12 17:31N 46°32' E 030°59'0 0.1
2014-Nov-12 16:31N 46°32' E 030°59'0 0.0
2014-Nov-12 15:31N 46°32' E 030°59'0 0.0
2014-Nov-12 14:07N 46°32' E 030°59'1 0.3
2014-Nov-12 11:21N 46°32' E 030°57'4214.2
2014-Nov-12 08:25N 45°51' E 031°11'1515.8
2014-Nov-12 07:29N 45°37' E 031°12'25315.6
2014-Nov-11 15:16N 41°36' E 029°24'1216.6
2014-Nov-11 14:33N 41°25' E 029°17'1913.7
2014-Nov-11 13:07N 41°09' E 029°04'811.8
2014-Nov-11 12:28N 41°01' E 029°00'7 7.4
2014-Nov-11 11:32N 40°55' E 028°60'7 6.7
2014-Nov-11 10:33N 40°48' E 028°57'1 0.6
2014-Nov-11 09:33N 40°48' E 028°57'1 0.7
2014-Nov-11 08:33N 40°47' E 028°57'1 0.7
2014-Nov-11 07:32N 40°47' E 028°58'1 0.5
2014-Nov-11 06:33N 40°46' E 028°58'3 3.4
2014-Nov-11 05:32N 40°49' E 028°55'1 0.8
2014-Nov-11 04:32N 40°48' E 028°56'1 0.7
2014-Nov-11 03:33N 40°47' E 028°56'1 0.5
2014-Nov-11 02:33N 40°47' E 028°56'0 0.5
2014-Nov-11 01:33N 40°47' E 028°56'0 0.3
2014-Nov-11 00:33N 40°46' E 028°57'0 0.2
2014-Nov-10 23:33N 40°46' E 028°57'0 0.1
2014-Nov-10 22:33N 40°46' E 028°57'0 0.2
2014-Nov-10 21:33N 40°46' E 028°57'0 0.2
2014-Nov-10 20:32N 40°46' E 028°57'0 0.1
2014-Nov-10 19:33N 40°46' E 028°57'0 0.2
2014-Nov-10 18:33N 40°45' E 028°57'0 0.2
2014-Nov-10 17:33N 40°45' E 028°57'4 4.1
2014-Nov-10 16:31N 40°48' E 029°01'0 0.3
2014-Nov-10 15:32N 40°48' E 029°01'0 0.1
2014-Nov-10 14:33N 40°48' E 029°01'0 0.1
2014-Nov-10 13:33N 40°48' E 029°01'0 0.2
2014-Nov-10 12:33N 40°48' E 029°00'0 0.3
2014-Nov-10 11:33N 40°48' E 029°00'0 0.4
2014-Nov-10 10:32N 40°47' E 028°60'0 0.4
2014-Nov-10 09:33N 40°47' E 028°60'0 0.3
2014-Nov-10 08:33N 40°47' E 028°59'0 0.2
2014-Nov-10 07:33N 40°47' E 028°59'0 0.4
2014-Nov-10 06:31N 40°46' E 028°59'0 0.4
2014-Nov-10 05:33N 40°46' E 028°58'0 0.4
2014-Nov-10 04:33N 40°46' E 028°58'0 0.4
2014-Nov-10 03:33N 40°45' E 028°58'0 0.3
2014-Nov-10 02:33N 40°45' E 028°57'0 0.3
2014-Nov-10 01:33N 40°45' E 028°57'0 0.3
2014-Nov-10 00:33N 40°45' E 028°57'6 6.1
2014-Nov-09 23:33N 40°51' E 028°55'6 5.7
2014-Nov-09 22:33N 40°46' E 028°56'1515.4
2014-Nov-09 21:33N 40°34' E 028°43'1513.3
2014-Nov-09 20:24N 40°26' E 028°60'14 0.4
2014-Nov-08 12:33N 40°31' E 028°43'1313.2
2014-Nov-08 11:33N 40°40' E 028°54'1414.5
2014-Nov-08 10:33N 40°43' E 029°13'1312.8
2014-Nov-08 09:33N 40°45' E 029°30'7 0.3
2014-Nov-07 07:29N 40°44' E 029°39'1111.5
2014-Nov-07 06:32N 40°44' E 029°24'7 7.2
2014-Nov-07 05:33N 40°43' E 029°15'1312.7
2014-Nov-07 04:33N 40°43' E 028°59'1515.2
2014-Nov-07 03:33N 40°43' E 028°39'1514.9
2014-Nov-07 02:31N 40°43' E 028°18'  

Dump ship's entire track history